Portada
METAR-TAF:

METAR-TAF

Aeroports :

Gaborone, Botswana

latitud: 24-13S, longitud: 025-55E, altitud: 1005 m

Observació

L'informe es va fer fa 40 minuts, a les 06:00 UTC
Vent 3 kt amb direcció variable
Temperatura 11°C
Humitat 76%
Pressió 1031 hPa
Visibilitat 10 km o més
sense núvols per sota de 1500 mi sense presència de cumulonimbus.

METAR: FBSK 250600Z VRB03KT CAVOK 11/07 Q1031 NOSIG

Hora: 08:40 (06:40 UTC)

Pronòstic

L'informe es va fer fa 2 hores i 40 minuts, a les 04:00 UTC
Pronòstic vàlid del 25 a les 06 UTC al 26 a les 12 UTC
Vent 3 kt amb direcció variable
Visibilitat 10 km o més
sense núvols per sota de 1500 mi sense presència de cumulonimbus.
Evolucionant progressivament
l' 26 a les 03 UTC al 26 a les 05 UTC
Vent 4 kt del Est

TAF: FBSK 250400Z 2506/2612 VRB03KT CAVOK BECMG 2603/2605 10004KT

Observacions i pronòstics meteorològics de més de 4000 aeroports (METAR i TAF).

Les estacions disponibles són els punts grocs i vermells al mapa.

Posi el ratolí al punt desitjat per veure el nom de l'estació.

Feu clic per veure les observacions i els pronòstics meteorològics.

Per canviar el mapa: feu clic els botons verds amb una creu de color negre per apropar; al botó verd amb un guió per allunyar la imatge; o en les fletxes verdes per a mapes adjacents.


METAR-TAF: